« Back
NWS Peachtree City, Ga » Text Product » AHN Terminal Aerodrome Forecast


Printer-friendly Version
Current Version              Previous Versions:   1  2  3  4  5  6  7  8  9  

Terminal Aerodrome Forecast

648
FTAK31 PAJN 301700 AAC
TAFAHN
TAF AMD
PAHN 301705Z 3017/0112 29010G20KT P6SM -SHRA VCTS SCT030CB BKN060
      TEMPO 3017/3019 10014G21KT SCT015 BKN025CB
     FM301900 31011KT P6SM -SHRA BKN015 OVC025
     FM302100 VRB05KT P6SM VCSH SCT015 OVC030
     FM302300 30005KT P6SM SCT025 BKN050 OVC070
     FM010700 30007KT P6SM SCT050 BKN070
      AMD LTD TO CLD VIS AND WIND=



USA.gov is the U.S. government's official web portal to all federal, state and local government web resources and services.